createdAt,value
2018-03-24T00:00:22.692Z,1.03
2018-03-24T00:02:15.951Z,0.78
2018-03-24T00:03:15.885Z,0.76
2018-03-24T00:05:09.171Z,0.78
2018-03-24T00:06:09.086Z,0.67
2018-03-24T00:08:02.341Z,0.71
2018-03-24T00:09:02.270Z,0.68
2018-03-24T00:10:55.541Z,0.45
2018-03-24T00:11:55.472Z,0.36
2018-03-24T00:13:48.671Z,0.31
2018-03-24T00:14:48.630Z,0.43
2018-03-24T00:16:41.887Z,0.62
2018-03-24T00:17:41.795Z,0.52
2018-03-24T00:19:35.116Z,0.42
2018-03-24T00:20:34.976Z,0.41
2018-03-24T00:22:28.246Z,0.46
2018-03-24T00:23:28.177Z,0.30
2018-03-24T00:25:21.413Z,0.28
2018-03-24T00:26:21.357Z,0.15
2018-03-24T00:28:14.618Z,0.03
2018-03-24T00:29:14.534Z,-0.01
2018-03-24T00:31:07.772Z,-0.06
2018-03-24T00:32:07.712Z,-0.04
2018-03-24T00:34:00.991Z,-0.11
2018-03-24T00:35:00.885Z,-0.06
2018-03-24T00:36:54.127Z,-0.19
2018-03-24T00:37:54.065Z,-0.24
2018-03-24T00:39:47.346Z,-0.44
2018-03-24T00:40:47.272Z,-0.51
2018-03-24T00:42:40.509Z,-0.54
2018-03-24T00:43:40.447Z,-0.51
2018-03-24T00:45:33.722Z,-0.45
2018-03-24T00:46:33.616Z,-0.51
2018-03-24T00:48:26.865Z,-0.48
2018-03-24T00:49:26.809Z,-0.63
2018-03-24T00:51:20.075Z,-0.73
2018-03-24T00:52:19.976Z,-0.62
2018-03-24T00:54:13.228Z,-0.65
2018-03-24T00:55:13.152Z,-0.60
2018-03-24T00:57:06.440Z,-0.51
2018-03-24T00:58:06.332Z,-0.52
2018-03-24T00:59:59.601Z,-0.47
2018-03-24T01:00:59.507Z,-0.51
2018-03-24T01:02:52.814Z,-0.48
2018-03-24T01:03:52.683Z,-0.44
2018-03-24T01:05:45.935Z,-0.39
2018-03-24T01:06:45.883Z,-0.29
2018-03-24T01:08:39.156Z,-0.29
2018-03-24T01:09:39.044Z,-0.23
2018-03-24T01:11:32.302Z,-0.37
2018-03-24T01:12:32.237Z,-0.26
2018-03-24T01:14:25.523Z,-0.55
2018-03-24T01:15:25.422Z,-0.62
2018-03-24T01:17:18.677Z,-0.69
2018-03-24T01:18:18.607Z,-0.73
2018-03-24T01:20:11.879Z,-0.44
2018-03-24T01:21:11.785Z,-0.50
2018-03-24T01:23:05.033Z,-0.52
2018-03-24T01:24:04.961Z,-0.41
2018-03-24T01:25:58.233Z,-0.42
2018-03-24T01:26:58.135Z,-0.27
2018-03-24T01:28:51.391Z,-0.65
2018-03-24T01:29:51.320Z,-0.62
2018-03-24T01:31:44.618Z,-0.69
2018-03-24T01:32:44.499Z,-0.91
2018-03-24T01:34:37.748Z,-0.91
2018-03-24T01:35:37.687Z,-0.95
2018-03-24T01:37:30.956Z,-1.00
2018-03-24T01:38:30.856Z,-1.03
2018-03-24T01:40:24.111Z,-0.97
2018-03-24T01:41:24.035Z,-0.94
2018-03-24T01:43:17.343Z,-0.80
2018-03-24T01:44:17.212Z,-0.72
2018-03-24T01:46:10.462Z,-0.70
2018-03-24T01:47:10.385Z,-0.73
2018-03-24T01:49:03.664Z,-0.72
2018-03-24T01:50:03.565Z,-0.73
2018-03-24T01:51:56.813Z,-0.89
2018-03-24T01:52:56.744Z,-1.05
2018-03-24T01:54:50.021Z,-1.15
2018-03-24T01:55:49.920Z,-1.05
2018-03-24T01:57:43.166Z,-0.92
2018-03-24T01:58:43.099Z,-0.68
2018-03-24T02:00:36.374Z,-0.66
2018-03-24T02:01:36.273Z,-0.70
2018-03-24T02:03:29.519Z,-0.48
2018-03-24T02:04:29.460Z,-0.54
2018-03-24T02:06:23.360Z,-0.51
2018-03-24T02:07:22.626Z,-0.60
2018-03-24T02:09:15.871Z,-0.63
2018-03-24T02:10:15.803Z,-0.72
2018-03-24T02:12:09.079Z,-0.68
2018-03-24T02:13:08.986Z,-0.50
2018-03-24T02:15:02.232Z,-0.50
2018-03-24T02:16:02.173Z,-0.48
2018-03-24T02:17:55.433Z,-0.62
2018-03-24T02:18:55.347Z,-0.66
2018-03-24T02:20:48.580Z,-0.54
2018-03-24T02:21:48.509Z,-0.16
2018-03-24T02:23:41.786Z,-0.12
2018-03-24T02:24:41.685Z,-0.29
2018-03-24T02:26:34.942Z,-0.22
2018-03-24T02:27:34.879Z,-0.27
2018-03-24T02:29:28.142Z,-0.54
2018-03-24T02:30:28.048Z,-0.52
2018-03-24T02:32:21.285Z,-0.73
2018-03-24T02:33:21.216Z,-0.65
2018-03-24T02:35:14.494Z,-0.66
2018-03-24T02:36:14.396Z,-0.50
2018-03-24T02:38:07.639Z,-0.48
2018-03-24T02:39:07.573Z,-0.48
2018-03-24T02:41:00.845Z,-0.42
2018-03-24T02:42:00.748Z,-0.48
2018-03-24T02:43:53.996Z,-0.39
2018-03-24T02:44:53.926Z,-0.48
2018-03-24T02:46:47.212Z,-0.68
2018-03-24T02:47:47.111Z,-0.66
2018-03-24T02:49:40.358Z,-0.63
2018-03-24T02:50:40.289Z,-0.54
2018-03-24T02:52:33.564Z,-0.54
2018-03-24T02:53:33.465Z,-0.55
2018-03-24T02:55:26.709Z,-0.60
2018-03-24T02:56:26.639Z,-0.52
2018-03-24T02:58:19.916Z,-0.55
2018-03-24T02:59:19.816Z,-0.47
2018-03-24T03:01:13.062Z,-0.48
2018-03-24T03:02:12.993Z,-0.39
2018-03-24T03:04:06.269Z,-0.39
2018-03-24T03:05:06.168Z,-0.47
2018-03-24T03:06:59.411Z,-0.68
2018-03-24T03:07:59.341Z,-0.54
2018-03-24T03:09:52.616Z,-0.80
2018-03-24T03:10:52.517Z,-0.48
2018-03-24T03:12:45.772Z,-0.48
2018-03-24T03:13:45.719Z,-0.52
2018-03-24T03:15:38.978Z,-0.73
2018-03-24T03:16:38.879Z,-0.52
2018-03-24T03:18:32.125Z,-0.62
2018-03-24T03:19:32.056Z,-0.89
2018-03-24T03:21:25.330Z,-0.70
2018-03-24T03:22:25.230Z,-0.66
2018-03-24T03:24:18.477Z,-0.75
2018-03-24T03:25:18.404Z,-0.50
2018-03-24T03:27:11.678Z,-0.52
2018-03-24T03:28:11.578Z,-0.72
2018-03-24T03:30:04.829Z,-0.92
2018-03-24T03:31:04.754Z,-0.91
2018-03-24T03:32:58.030Z,-0.78
2018-03-24T03:33:57.928Z,-0.69
2018-03-24T03:35:51.170Z,-0.68
2018-03-24T03:36:51.103Z,-0.57
2018-03-24T03:38:44.391Z,-0.70
2018-03-24T03:39:44.287Z,-0.95
2018-03-24T03:41:37.535Z,-1.09
2018-03-24T03:42:37.466Z,-1.27
2018-03-24T03:44:30.740Z,-1.38
2018-03-24T03:45:30.642Z,-1.33
2018-03-24T03:47:23.887Z,-1.12
2018-03-24T03:48:23.814Z,-1.25
2018-03-24T03:50:17.090Z,-0.69
2018-03-24T03:51:16.990Z,-0.73
2018-03-24T03:53:10.239Z,-0.89
2018-03-24T03:54:10.167Z,-0.73
2018-03-24T03:56:03.442Z,-1.00
2018-03-24T03:57:03.342Z,-0.65
2018-03-24T03:58:56.590Z,-0.80
2018-03-24T03:59:56.520Z,-0.75
2018-03-24T04:01:49.794Z,-0.94
2018-03-24T04:02:49.695Z,-1.02
2018-03-24T04:04:42.944Z,-1.20
2018-03-24T04:05:42.870Z,-1.33
2018-03-24T04:07:36.142Z,-1.39
2018-03-24T04:08:36.044Z,-1.45
2018-03-24T04:10:29.292Z,-1.20
2018-03-24T04:11:29.219Z,-1.13
2018-03-24T04:13:22.498Z,-1.05
2018-03-24T04:14:22.396Z,-1.21
2018-03-24T04:16:15.641Z,-1.36
2018-03-24T04:17:15.570Z,-1.45
2018-03-24T04:19:08.845Z,-1.27
2018-03-24T04:20:08.744Z,-1.21
2018-03-24T04:22:01.991Z,-1.27
2018-03-24T04:23:01.926Z,-1.31
2018-03-24T04:24:55.195Z,-1.28
2018-03-24T04:25:55.096Z,-1.20
2018-03-24T04:27:48.342Z,-1.21
2018-03-24T04:28:48.272Z,-1.21
2018-03-24T04:30:41.544Z,-1.06
2018-03-24T04:31:41.445Z,-1.23
2018-03-24T04:33:34.707Z,-1.12
2018-03-24T04:34:34.706Z,-1.15
2018-03-24T04:36:27.918Z,-1.33
2018-03-24T04:37:27.805Z,-1.43
2018-03-24T04:39:21.049Z,-1.36
2018-03-24T04:40:20.979Z,-1.36
2018-03-24T04:42:14.262Z,-1.20
2018-03-24T04:43:14.155Z,-1.20
2018-03-24T04:45:07.400Z,-1.27
2018-03-24T04:46:07.337Z,-1.24
2018-03-24T04:48:00.608Z,-1.36
2018-03-24T04:49:00.508Z,-1.42
2018-03-24T04:50:53.755Z,-1.62
2018-03-24T04:51:53.684Z,-1.75
2018-03-24T04:53:46.964Z,-1.82
2018-03-24T04:54:46.858Z,-1.80
2018-03-24T04:56:40.104Z,-1.59
2018-03-24T04:57:40.034Z,-1.62
2018-03-24T04:59:33.315Z,-1.64
2018-03-24T05:00:33.214Z,-1.78
2018-03-24T05:02:26.457Z,-1.60
2018-03-24T05:03:26.387Z,-1.54
2018-03-24T05:05:19.672Z,-1.63
2018-03-24T05:06:19.563Z,-1.36
2018-03-24T05:08:12.808Z,-1.07
2018-03-24T05:09:12.737Z,-0.94
2018-03-24T05:11:06.022Z,-0.92
2018-03-24T05:12:05.912Z,-0.81
2018-03-24T05:13:59.158Z,-0.70
2018-03-24T05:14:59.087Z,-0.77
2018-03-24T05:16:52.363Z,-0.89
2018-03-24T05:17:52.261Z,-0.95
2018-03-24T05:19:45.506Z,-1.05
2018-03-24T05:20:45.435Z,-1.02
2018-03-24T05:22:38.708Z,-0.95
2018-03-24T05:23:38.609Z,-0.91
2018-03-24T05:25:31.862Z,-0.70
2018-03-24T05:26:31.786Z,-0.65
2018-03-24T05:28:25.068Z,-0.26
2018-03-24T05:29:24.960Z,-0.26
2018-03-24T05:31:18.212Z,-0.45
2018-03-24T05:32:18.133Z,-0.48
2018-03-24T05:34:11.410Z,-0.39
2018-03-24T05:35:11.309Z,-0.48
2018-03-24T05:37:04.559Z,-0.54
2018-03-24T05:38:04.485Z,-0.59
2018-03-24T05:39:57.768Z,-0.47
2018-03-24T05:40:57.662Z,-0.45
2018-03-24T05:42:50.917Z,-0.23
2018-03-24T05:43:50.853Z,-0.27
2018-03-24T05:45:44.129Z,-0.30
2018-03-24T05:46:44.018Z,-0.26
2018-03-24T05:48:37.293Z,-0.11
2018-03-24T05:49:37.194Z,-0.08
2018-03-24T05:51:30.471Z,-0.15
2018-03-24T05:52:30.374Z,-0.19
2018-03-24T05:54:23.615Z,-0.16
2018-03-24T05:55:23.547Z,-0.09
2018-03-24T05:57:16.821Z,-0.05
2018-03-24T05:58:16.721Z,0.02
2018-03-24T06:00:09.976Z,0.27
2018-03-24T06:01:09.897Z,0.21
2018-03-24T06:03:03.174Z,0.25
2018-03-24T06:04:03.096Z,0.30
2018-03-24T06:05:56.318Z,0.30
2018-03-24T06:06:56.251Z,0.33
2018-03-24T06:08:49.538Z,0.48
2018-03-24T06:09:49.428Z,0.53
2018-03-24T06:11:42.679Z,0.62
2018-03-24T06:12:42.615Z,0.58
2018-03-24T06:14:35.911Z,0.65
2018-03-24T06:15:35.785Z,0.62
2018-03-24T06:17:29.046Z,0.68
2018-03-24T06:18:28.965Z,0.80
2018-03-24T06:20:22.255Z,0.83
2018-03-24T06:21:22.143Z,0.92
2018-03-24T06:23:15.398Z,1.10
2018-03-24T06:24:15.322Z,1.19
2018-03-24T06:26:08.601Z,1.42
2018-03-24T06:27:08.499Z,1.69
2018-03-24T06:29:01.749Z,2.26
2018-03-24T06:30:01.679Z,2.30
2018-03-24T06:31:54.971Z,2.51
2018-03-24T06:32:54.856Z,2.73
2018-03-24T06:34:48.104Z,2.98
2018-03-24T06:35:48.036Z,3.07
2018-03-24T06:37:41.321Z,3.83
2018-03-24T06:38:41.220Z,4.86
2018-03-24T06:40:34.467Z,6.51
2018-03-24T06:41:34.401Z,6.38
2018-03-24T06:43:27.677Z,7.15
2018-03-24T06:44:27.600Z,7.62
2018-03-24T06:46:20.839Z,8.84
2018-03-24T06:47:20.762Z,9.30
2018-03-24T06:49:14.045Z,9.91
2018-03-24T06:50:13.949Z,10.30
2018-03-24T06:52:07.226Z,10.74
2018-03-24T06:53:07.141Z,10.83
2018-03-24T06:55:00.435Z,10.70
2018-03-24T06:56:00.328Z,10.15
2018-03-24T06:57:53.584Z,10.12
2018-03-24T06:58:53.521Z,10.17
2018-03-24T07:00:46.812Z,9.99
2018-03-24T07:01:46.714Z,10.17
2018-03-24T07:03:39.993Z,11.20
2018-03-24T07:04:39.924Z,11.75
2018-03-24T07:06:33.203Z,11.34
2018-03-24T07:07:33.108Z,10.84
2018-03-24T07:09:26.366Z,10.91
2018-03-24T07:10:26.320Z,11.28
2018-03-24T07:12:19.597Z,12.60
2018-03-24T07:13:19.515Z,12.74
2018-03-24T07:15:12.810Z,11.56
2018-03-24T07:16:12.768Z,11.03
2018-03-24T07:18:06.009Z,10.94
2018-03-24T07:19:05.931Z,11.34
2018-03-24T07:20:59.210Z,12.16
2018-03-24T07:21:59.140Z,12.30
2018-03-24T07:23:52.516Z,12.20
2018-03-24T07:24:52.337Z,12.20
2018-03-24T07:26:45.633Z,12.78
2018-03-24T07:27:45.555Z,13.11
2018-03-24T07:29:52.999Z,12.09
2018-03-24T07:30:52.911Z,12.05
2018-03-24T07:32:46.185Z,12.82
2018-03-24T07:33:46.130Z,12.31
2018-03-24T07:35:39.433Z,12.05
2018-03-24T07:36:39.353Z,11.36
2018-03-24T07:38:32.638Z,11.89
2018-03-24T07:39:32.561Z,12.16
2018-03-24T07:41:25.842Z,12.71
2018-03-24T07:42:25.753Z,12.57
2018-03-24T07:44:19.139Z,12.01
2018-03-24T07:45:19.217Z,12.33
2018-03-24T07:47:13.338Z,11.93
2018-03-24T07:49:53.020Z,12.19
2018-03-24T07:50:52.968Z,12.34
2018-03-24T07:52:46.258Z,13.69
2018-03-24T07:53:46.178Z,13.63
2018-03-24T07:55:39.453Z,13.65
2018-03-24T07:56:39.395Z,13.96
2018-03-24T07:58:32.692Z,13.51
2018-03-24T07:59:32.604Z,13.91
2018-03-24T08:01:25.907Z,13.20
2018-03-24T08:02:25.868Z,13.36
2018-03-24T08:04:38.330Z,12.49
2018-03-24T08:05:37.861Z,12.44
2018-03-24T08:07:30.999Z,12.69
2018-03-24T08:08:30.917Z,12.78
2018-03-24T08:10:49.684Z,12.01
2018-03-24T08:11:49.628Z,11.78
2018-03-24T08:13:42.841Z,12.81
2018-03-24T08:14:42.936Z,13.36
2018-03-24T08:16:36.164Z,13.03
2018-03-24T08:17:39.322Z,13.17
2018-03-24T08:19:29.366Z,12.89
2018-03-24T08:20:29.285Z,13.37
2018-03-24T08:22:22.608Z,13.81
2018-03-24T08:23:22.751Z,14.06
2018-03-24T08:25:17.534Z,13.96
2018-03-24T08:26:17.777Z,13.77
2018-03-24T08:28:10.933Z,13.37
2018-03-24T08:30:37.631Z,13.84
2018-03-24T08:31:37.548Z,14.10
2018-03-24T08:33:32.716Z,14.88
2018-03-24T08:34:32.739Z,13.77
2018-03-24T08:36:25.914Z,14.32
2018-03-24T08:37:25.872Z,15.27
2018-03-24T08:39:18.780Z,16.58
2018-03-24T08:40:18.714Z,16.74
2018-03-24T08:42:11.500Z,16.70
2018-03-24T08:43:11.474Z,17.00
2018-03-24T08:45:04.825Z,16.56
2018-03-24T08:46:04.685Z,15.74
2018-03-24T08:48:11.552Z,14.25
2018-03-24T08:49:11.492Z,14.34
2018-03-24T08:51:06.050Z,14.35
2018-03-24T08:53:18.294Z,13.84
2018-03-24T08:54:18.342Z,13.81
2018-03-24T08:56:14.868Z,13.80
2018-03-24T08:57:12.514Z,14.27
2018-03-24T08:59:06.925Z,13.87
2018-03-24T09:00:06.923Z,13.70
2018-03-24T09:02:12.511Z,13.96
2018-03-24T09:03:12.371Z,14.01
2018-03-24T09:05:05.966Z,14.02
2018-03-24T09:06:07.423Z,14.12
2018-03-24T09:07:58.529Z,15.31
2018-03-24T09:08:58.486Z,15.56
2018-03-24T09:10:51.742Z,15.48
2018-03-24T09:11:51.761Z,15.70
2018-03-24T09:13:44.609Z,15.52
2018-03-24T09:14:44.546Z,15.88
2018-03-24T09:16:37.810Z,15.88
2018-03-24T09:17:37.786Z,15.99
2018-03-24T09:19:31.229Z,14.67
2018-03-24T09:20:31.119Z,14.52
2018-03-24T09:22:24.509Z,14.54
2018-03-24T09:23:24.408Z,14.87
2018-03-24T09:25:17.696Z,15.17
2018-03-24T09:26:17.598Z,14.84
2018-03-24T09:28:10.978Z,14.60
2018-03-24T09:29:10.886Z,14.31
2018-03-24T09:31:05.129Z,14.87
2018-03-24T09:32:04.947Z,13.83
2018-03-24T09:33:58.244Z,15.20
2018-03-24T09:34:58.231Z,15.46
2018-03-24T09:36:52.088Z,15.06
2018-03-24T09:37:52.006Z,15.39
2018-03-24T09:39:45.304Z,14.95
2018-03-24T09:40:45.249Z,14.68
2018-03-24T09:42:38.589Z,15.64
2018-03-24T09:43:38.497Z,15.21
2018-03-24T09:45:31.282Z,15.82
2018-03-24T09:46:31.239Z,15.64
2018-03-24T09:48:24.062Z,16.12
2018-03-24T09:49:23.986Z,16.70
2018-03-24T09:51:17.262Z,17.18
2018-03-24T09:52:17.210Z,16.77
2018-03-24T09:54:10.543Z,16.16
2018-03-24T09:55:10.466Z,16.34
2018-03-24T09:57:03.273Z,15.38
2018-03-24T09:58:03.221Z,15.20
2018-03-24T09:59:56.082Z,15.03
2018-03-24T10:00:55.966Z,15.93
2018-03-24T10:02:48.767Z,14.98
2018-03-24T10:03:48.718Z,14.86
2018-03-24T10:05:42.025Z,15.31
2018-03-24T10:06:41.951Z,15.13
2018-03-24T10:08:34.745Z,15.15
2018-03-24T10:09:34.693Z,13.91
2018-03-24T10:11:28.018Z,13.98
2018-03-24T10:12:27.944Z,14.61
2018-03-24T10:14:21.228Z,14.44
2018-03-24T10:15:21.170Z,15.57
2018-03-24T10:17:14.484Z,16.83
2018-03-24T10:18:14.404Z,16.78
2018-03-24T10:20:07.688Z,16.14
2018-03-24T10:21:07.655Z,15.46
2018-03-24T10:23:00.949Z,16.37
2018-03-24T10:24:00.871Z,15.94
2018-03-24T10:25:53.665Z,15.27
2018-03-24T10:26:53.606Z,14.91
2018-03-24T10:28:46.431Z,14.87
2018-03-24T10:29:46.349Z,14.91
2018-03-24T10:31:39.637Z,15.68
2018-03-24T10:32:39.586Z,16.30
2018-03-24T10:34:32.528Z,14.90
2018-03-24T10:35:32.324Z,15.67
2018-03-24T10:37:25.608Z,17.25
2018-03-24T10:38:25.557Z,17.17
2018-03-24T10:40:18.885Z,16.38
2018-03-24T10:41:18.794Z,16.49
2018-03-24T10:43:15.842Z,15.61
2018-03-24T10:44:15.798Z,15.26
2018-03-24T10:46:08.616Z,15.67
2018-03-24T10:47:08.540Z,16.50
2018-03-24T10:49:01.825Z,16.22
2018-03-24T10:50:01.776Z,16.58
2018-03-24T10:51:55.088Z,17.78
2018-03-24T10:52:55.025Z,16.95
2018-03-24T10:54:48.337Z,17.36
2018-03-24T10:55:48.249Z,16.78
2018-03-24T10:57:41.562Z,16.71
2018-03-24T10:58:41.511Z,15.52
2018-03-24T11:00:34.279Z,17.10
2018-03-24T11:01:34.232Z,18.03
2018-03-24T11:03:27.052Z,16.95
2018-03-24T11:04:26.974Z,15.92
2018-03-24T11:06:19.764Z,15.72
2018-03-24T11:07:19.712Z,15.48
2018-03-24T11:09:12.539Z,15.94
2018-03-24T11:10:12.454Z,16.62
2018-03-24T11:12:05.246Z,16.68
2018-03-24T11:13:05.196Z,16.27
2018-03-24T11:14:58.017Z,16.92
2018-03-24T11:15:57.937Z,17.78
2018-03-24T11:17:50.729Z,17.85
2018-03-24T11:18:50.676Z,17.97
2018-03-24T11:20:43.996Z,17.57
2018-03-24T11:21:43.915Z,18.12
2018-03-24T11:23:36.709Z,18.59
2018-03-24T11:24:36.659Z,17.74
2018-03-24T11:26:29.536Z,16.96
2018-03-24T11:27:29.400Z,16.92
2018-03-24T11:29:22.191Z,16.14
2018-03-24T11:30:22.141Z,15.45
2018-03-24T11:32:14.966Z,16.45
2018-03-24T11:33:14.885Z,16.67
2018-03-24T11:35:08.173Z,17.54
2018-03-24T11:36:08.127Z,17.62
2018-03-24T11:38:01.444Z,16.56
2018-03-24T11:39:01.372Z,16.12
2018-03-24T11:40:54.164Z,16.00
2018-03-24T11:41:54.117Z,16.07
2018-03-24T11:43:46.936Z,16.99
2018-03-24T11:44:46.857Z,17.51
2018-03-24T11:46:40.143Z,18.07
2018-03-24T11:47:40.094Z,16.63
2018-03-24T11:49:33.412Z,16.16
2018-03-24T11:50:33.335Z,16.37
2018-03-24T11:52:26.620Z,16.30
2018-03-24T11:53:26.571Z,15.86
2018-03-24T11:55:19.391Z,16.67
2018-03-24T11:56:19.316Z,16.03
2018-03-24T11:58:12.108Z,16.30
2018-03-24T11:59:12.058Z,16.49
2018-03-24T12:01:05.375Z,16.68
2018-03-24T12:02:05.294Z,16.99
2018-03-24T12:03:58.083Z,15.23
2018-03-24T12:04:58.035Z,15.06
2018-03-24T12:06:51.474Z,14.94
2018-03-24T12:07:51.274Z,15.03
2018-03-24T12:09:44.554Z,15.42
2018-03-24T12:10:44.507Z,15.86
2018-03-24T12:12:37.818Z,16.73
2018-03-24T12:13:37.738Z,16.96
2018-03-24T12:15:31.020Z,17.47
2018-03-24T12:16:30.972Z,16.60
2018-03-24T12:18:24.292Z,16.49
2018-03-24T12:19:24.207Z,16.18
2018-03-24T12:21:16.998Z,16.11
2018-03-24T12:22:16.947Z,16.40
2018-03-24T12:24:10.261Z,16.03
2018-03-24T12:25:10.183Z,15.35
2018-03-24T12:27:03.470Z,15.09
2018-03-24T12:28:03.424Z,15.39
2018-03-24T12:29:56.731Z,14.67
2018-03-24T12:30:56.650Z,14.69
2018-03-24T12:32:49.935Z,15.96
2018-03-24T12:33:49.882Z,16.01
2018-03-24T12:35:43.196Z,16.30
2018-03-24T12:36:43.117Z,15.38
2018-03-24T12:38:36.397Z,15.26
2018-03-24T12:39:36.347Z,15.05
2018-03-24T12:41:29.163Z,15.99
2018-03-24T12:42:29.086Z,16.27
2018-03-24T12:44:22.366Z,15.54
2018-03-24T12:45:22.317Z,15.33
2018-03-24T12:47:15.633Z,15.27
2018-03-24T12:48:15.549Z,15.78
2018-03-24T12:50:08.833Z,16.48
2018-03-24T12:51:08.784Z,15.97
2018-03-24T12:53:02.104Z,15.84
2018-03-24T12:54:02.023Z,15.57
2018-03-24T12:55:54.811Z,15.17
2018-03-24T12:56:54.761Z,15.02
2018-03-24T12:58:48.075Z,14.31
2018-03-24T12:59:47.993Z,14.16
2018-03-24T13:01:40.778Z,14.29
2018-03-24T13:02:40.725Z,14.04
2018-03-24T13:04:34.039Z,14.83
2018-03-24T13:05:33.956Z,14.93
2018-03-24T13:07:27.238Z,15.51
2018-03-24T13:08:27.183Z,15.54
2018-03-24T13:10:20.495Z,14.93
2018-03-24T13:11:20.411Z,14.90
2018-03-24T13:13:13.203Z,14.95
2018-03-24T13:14:13.156Z,14.87
2018-03-24T13:16:06.458Z,15.21
2018-03-24T13:17:06.375Z,14.72
2018-03-24T13:18:59.657Z,14.87
2018-03-24T13:19:59.608Z,15.11
2018-03-24T13:21:52.419Z,14.94
2018-03-24T13:22:52.342Z,15.27
2018-03-24T13:24:45.120Z,15.09
2018-03-24T13:25:45.068Z,15.21
2018-03-24T13:27:38.418Z,15.35
2018-03-24T13:28:38.301Z,15.39
2018-03-24T13:30:31.576Z,15.61
2018-03-24T13:31:31.525Z,15.74
2018-03-24T13:33:24.835Z,15.20
2018-03-24T13:34:24.752Z,15.30
2018-03-24T13:36:18.034Z,14.93
2018-03-24T13:37:17.981Z,14.99
2018-03-24T13:39:11.291Z,15.19
2018-03-24T13:40:11.217Z,15.27
2018-03-24T13:42:04.497Z,15.24
2018-03-24T13:43:04.440Z,15.66
2018-03-24T13:44:57.756Z,15.76
2018-03-24T13:45:57.670Z,15.24
2018-03-24T13:47:50.948Z,14.72
2018-03-24T13:48:50.899Z,14.68
2018-03-24T13:50:44.215Z,14.65
2018-03-24T13:51:44.127Z,14.32
2018-03-24T13:53:36.915Z,13.94
2018-03-24T13:54:36.861Z,13.94
2018-03-24T13:56:29.673Z,14.01
2018-03-24T13:57:29.585Z,14.16
2018-03-24T13:59:22.863Z,14.38
2018-03-24T14:00:22.811Z,14.53
2018-03-24T14:02:15.621Z,14.88
2018-03-24T14:03:15.537Z,14.86
2018-03-24T14:05:08.814Z,14.20
2018-03-24T14:06:08.763Z,13.87
2018-03-24T14:08:01.602Z,13.73
2018-03-24T14:09:01.520Z,13.49
2018-03-24T14:10:54.797Z,13.70
2018-03-24T14:11:54.744Z,14.13
2018-03-24T14:13:47.552Z,13.91
2018-03-24T14:14:47.465Z,13.51
2018-03-24T14:16:40.743Z,12.93
2018-03-24T14:17:40.687Z,12.75
2018-03-24T14:19:33.990Z,13.11
2018-03-24T14:20:33.904Z,13.15
2018-03-24T14:22:26.682Z,13.07
2018-03-24T14:23:26.653Z,13.22
2018-03-24T14:25:19.926Z,13.30
2018-03-24T14:26:19.840Z,13.17
2018-03-24T14:28:13.111Z,13.17
2018-03-24T14:29:13.054Z,13.00
2018-03-24T14:31:06.356Z,12.82
2018-03-24T14:32:06.263Z,12.87
2018-03-24T14:33:59.535Z,12.85
2018-03-24T14:34:59.476Z,12.81
2018-03-24T14:36:52.783Z,13.00
2018-03-24T14:37:52.705Z,13.09
2018-03-24T14:39:45.961Z,12.96
2018-03-24T14:40:45.901Z,13.11
2018-03-24T14:42:39.204Z,12.85
2018-03-24T14:43:39.108Z,12.64
2018-03-24T14:45:32.377Z,12.56
2018-03-24T14:46:32.318Z,12.44
2018-03-24T14:48:25.621Z,12.30
2018-03-24T14:49:25.530Z,12.42
2018-03-24T14:51:18.786Z,12.42
2018-03-24T14:52:18.728Z,12.42
2018-03-24T14:54:12.042Z,12.31
2018-03-24T14:55:11.933Z,12.33
2018-03-24T14:57:05.195Z,12.37
2018-03-24T14:58:05.136Z,12.42
2018-03-24T14:59:58.429Z,12.56
2018-03-24T15:00:58.338Z,12.44
2018-03-24T15:02:51.615Z,12.23
2018-03-24T15:03:51.547Z,12.09
2018-03-24T15:05:44.841Z,11.87
2018-03-24T15:06:44.768Z,11.87
2018-03-24T15:08:38.010Z,11.74
2018-03-24T15:09:37.951Z,11.71
2018-03-24T15:11:31.242Z,11.85
2018-03-24T15:12:31.197Z,12.04
2018-03-24T15:14:24.417Z,12.09
2018-03-24T15:15:24.351Z,11.97
2018-03-24T15:17:17.646Z,12.16
2018-03-24T15:18:17.618Z,12.15
2018-03-24T15:20:10.821Z,12.01
2018-03-24T15:21:10.756Z,12.06
2018-03-24T15:23:04.051Z,11.94
2018-03-24T15:24:03.958Z,11.90
2018-03-24T15:25:57.228Z,11.87
2018-03-24T15:26:57.161Z,11.87
2018-03-24T15:28:50.460Z,11.85
2018-03-24T15:29:50.362Z,11.87
2018-03-24T15:31:43.627Z,11.75
2018-03-24T15:32:43.563Z,11.78
2018-03-24T15:34:36.856Z,11.65
2018-03-24T15:35:36.768Z,11.68
2018-03-24T15:37:30.028Z,11.53
2018-03-24T15:38:29.968Z,11.49
2018-03-24T15:40:23.283Z,11.46
2018-03-24T15:41:23.179Z,11.52
2018-03-24T15:43:16.426Z,11.47
2018-03-24T15:44:16.366Z,11.52
2018-03-24T15:46:09.661Z,11.64
2018-03-24T15:47:09.570Z,11.53
2018-03-24T15:49:02.838Z,11.34
2018-03-24T15:50:02.773Z,11.46
2018-03-24T15:51:56.070Z,11.49
2018-03-24T15:52:55.979Z,11.56
2018-03-24T15:54:49.248Z,11.46
2018-03-24T15:55:49.173Z,11.38
2018-03-24T15:57:42.464Z,11.44
2018-03-24T15:58:42.381Z,11.41
2018-03-24T16:00:35.634Z,11.43
2018-03-24T16:01:35.581Z,11.44
2018-03-24T16:03:28.863Z,11.49
2018-03-24T16:04:28.773Z,11.56
2018-03-24T16:06:22.050Z,11.38
2018-03-24T16:07:21.980Z,11.32
2018-03-24T16:09:15.276Z,11.27
2018-03-24T16:10:15.168Z,11.13
2018-03-24T16:12:08.427Z,11.24
2018-03-24T16:13:08.367Z,11.21
2018-03-24T16:15:01.655Z,11.35
2018-03-24T16:16:01.564Z,11.16
2018-03-24T16:17:54.849Z,11.16
2018-03-24T16:18:54.763Z,10.99
2018-03-24T16:20:48.057Z,10.94
2018-03-24T16:21:47.993Z,10.91
2018-03-24T16:23:41.222Z,10.89
2018-03-24T16:24:41.172Z,10.81
2018-03-24T16:26:34.475Z,10.80
2018-03-24T16:27:34.384Z,10.65
2018-03-24T16:29:27.623Z,10.71
2018-03-24T16:30:27.561Z,10.68
2018-03-24T16:32:20.847Z,10.59
2018-03-24T16:33:20.753Z,10.55
2018-03-24T16:35:14.018Z,10.37
2018-03-24T16:36:13.954Z,10.42
2018-03-24T16:38:07.248Z,10.39
2018-03-24T16:39:07.164Z,10.42
2018-03-24T16:41:00.419Z,10.33
2018-03-24T16:42:00.352Z,10.33
2018-03-24T16:43:53.640Z,10.22
2018-03-24T16:44:53.546Z,10.19
2018-03-24T16:46:46.833Z,10.15
2018-03-24T16:47:46.749Z,10.04
2018-03-24T16:49:40.039Z,9.96
2018-03-24T16:50:39.953Z,9.83
2018-03-24T16:52:33.202Z,9.67
2018-03-24T16:53:33.138Z,9.73
2018-03-24T16:55:26.437Z,9.66
2018-03-24T16:56:26.361Z,9.57
2018-03-24T16:58:19.596Z,9.34
2018-03-24T16:59:19.546Z,9.40
2018-03-24T17:01:12.838Z,9.39
2018-03-24T17:02:12.728Z,9.27
2018-03-24T17:04:05.984Z,9.46
2018-03-24T17:05:05.921Z,9.45
2018-03-24T17:06:59.216Z,9.42
2018-03-24T17:07:59.116Z,9.38
2018-03-24T17:09:52.377Z,9.25
2018-03-24T17:10:52.320Z,9.13
2018-03-24T17:12:45.610Z,9.12
2018-03-24T17:13:45.510Z,9.13
2018-03-24T17:15:38.767Z,9.12
2018-03-24T17:16:38.702Z,9.02
2018-03-24T17:18:31.991Z,9.16
2018-03-24T17:19:31.896Z,9.09
2018-03-24T17:21:25.153Z,8.96
2018-03-24T17:22:25.092Z,8.84
2018-03-24T17:24:18.376Z,8.73
2018-03-24T17:25:18.298Z,8.53
2018-03-24T17:27:11.546Z,8.48
2018-03-24T17:28:11.480Z,8.54
2018-03-24T17:30:04.784Z,8.45
2018-03-24T17:31:04.677Z,8.39
2018-03-24T17:32:57.928Z,8.35
2018-03-24T17:33:57.864Z,8.29
2018-03-24T17:35:51.154Z,8.33
2018-03-24T17:36:51.061Z,8.28
2018-03-24T17:38:44.360Z,8.17
2018-03-24T17:39:44.257Z,8.10
2018-03-24T17:41:37.545Z,7.99
2018-03-24T17:42:37.447Z,7.85
2018-03-24T17:44:30.701Z,7.74
2018-03-24T17:45:30.637Z,7.66
2018-03-24T17:47:23.934Z,7.49
2018-03-24T17:48:23.840Z,7.31
2018-03-24T17:50:17.110Z,7.08
2018-03-24T17:51:17.023Z,7.09
2018-03-24T17:53:10.321Z,6.79
2018-03-24T17:54:10.215Z,6.81
2018-03-24T17:56:03.475Z,6.68
2018-03-24T17:57:03.410Z,6.56
2018-03-24T17:58:56.697Z,6.59
2018-03-24T17:59:56.641Z,6.63
2018-03-24T18:01:49.887Z,6.66
2018-03-24T18:02:49.822Z,6.62
2018-03-24T18:04:43.112Z,6.48
2018-03-24T18:05:43.014Z,6.22
2018-03-24T18:07:36.274Z,6.13
2018-03-24T18:08:36.210Z,6.19
2018-03-24T18:10:29.487Z,6.14
2018-03-24T18:11:29.392Z,6.16
2018-03-24T18:13:22.662Z,5.92
2018-03-24T18:14:22.617Z,5.96
2018-03-24T18:16:15.899Z,6.03
2018-03-24T18:17:15.806Z,5.96
2018-03-24T18:19:09.044Z,6.14
2018-03-24T18:20:08.978Z,6.13
2018-03-24T18:22:02.274Z,6.03
2018-03-24T18:23:02.177Z,6.01
2018-03-24T18:24:55.420Z,6.01
2018-03-24T18:25:55.365Z,6.03
2018-03-24T18:27:48.645Z,5.81
2018-03-24T18:28:48.655Z,5.88
2018-03-24T18:30:41.836Z,5.91
2018-03-24T18:31:41.735Z,5.86
2018-03-24T18:33:35.026Z,5.82
2018-03-24T18:34:34.936Z,5.74
2018-03-24T18:36:28.217Z,5.63
2018-03-24T18:37:28.157Z,5.63
2018-03-24T18:39:21.403Z,5.35
2018-03-24T18:40:21.305Z,5.32
2018-03-24T18:42:14.645Z,5.17
2018-03-24T18:43:14.496Z,5.04
2018-03-24T18:45:07.816Z,5.17
2018-03-24T18:46:07.714Z,5.17